sensor_id;sensor_type;location;lat;lon;timestamp;P1;durP1;ratioP1;P2;durP2;ratioP2
6999;SDS011;3540;53.242;10.408;2022-09-09T00:00:12;29.63;;;18.20;;
6999;SDS011;3540;53.242;10.408;2022-09-09T00:02:41;42.40;;;20.60;;
6999;SDS011;3540;53.242;10.408;2022-09-09T00:05:36;34.23;;;19.13;;
6999;SDS011;3540;53.242;10.408;2022-09-09T00:08:11;25.83;;;17.40;;
6999;SDS011;3540;53.242;10.408;2022-09-09T00:10:44;37.87;;;19.43;;
6999;SDS011;3540;53.242;10.408;2022-09-09T00:13:21;23.47;;;16.87;;
6999;SDS011;3540;53.242;10.408;2022-09-09T00:22:31;30.47;;;18.17;;
6999;SDS011;3540;53.242;10.408;2022-09-09T00:24:32;33.20;;;17.97;;
6999;SDS011;3540;53.242;10.408;2022-09-09T00:27:21;34.33;;;18.80;;
6999;SDS011;3540;53.242;10.408;2022-09-09T00:29:56;24.07;;;16.20;;
6999;SDS011;3540;53.242;10.408;2022-09-09T00:32:45;30.43;;;17.23;;
6999;SDS011;3540;53.242;10.408;2022-09-09T00:35:22;29.80;;;18.20;;
6999;SDS011;3540;53.242;10.408;2022-09-09T00:37:53;36.30;;;20.33;;
6999;SDS011;3540;53.242;10.408;2022-09-09T00:40:23;30.00;;;18.27;;
6999;SDS011;3540;53.242;10.408;2022-09-09T00:43:00;49.90;;;22.03;;
6999;SDS011;3540;53.242;10.408;2022-09-09T00:48:14;37.27;;;20.17;;
6999;SDS011;3540;53.242;10.408;2022-09-09T00:56:22;33.00;;;18.50;;
6999;SDS011;3540;53.242;10.408;2022-09-09T00:59:02;35.60;;;18.83;;
6999;SDS011;3540;53.242;10.408;2022-09-09T01:01:51;34.23;;;18.23;;
6999;SDS011;3540;53.242;10.408;2022-09-09T01:04:21;53.73;;;22.33;;
6999;SDS011;3540;53.242;10.408;2022-09-09T01:06:57;37.03;;;18.43;;
6999;SDS011;3540;53.242;10.408;2022-09-09T01:15:11;33.27;;;19.20;;
6999;SDS011;3540;53.242;10.408;2022-09-09T01:20:11;39.67;;;20.10;;
6999;SDS011;3540;53.242;10.408;2022-09-09T01:25:28;31.50;;;18.00;;
6999;SDS011;3540;53.242;10.408;2022-09-09T01:27:59;37.43;;;19.23;;
6999;SDS011;3540;53.242;10.408;2022-09-09T01:30:28;28.67;;;18.37;;
6999;SDS011;3540;53.242;10.408;2022-09-09T01:32:55;30.13;;;17.73;;
6999;SDS011;3540;53.242;10.408;2022-09-09T01:37:56;32.13;;;17.73;;
6999;SDS011;3540;53.242;10.408;2022-09-09T01:40:22;23.63;;;15.47;;
6999;SDS011;3540;53.242;10.408;2022-09-09T01:42:49;41.10;;;19.33;;
6999;SDS011;3540;53.242;10.408;2022-09-09T01:45:15;40.30;;;18.40;;
6999;SDS011;3540;53.242;10.408;2022-09-09T01:47:40;62.30;;;19.23;;
6999;SDS011;3540;53.242;10.408;2022-09-09T01:50:07;22.53;;;15.40;;
6999;SDS011;3540;53.242;10.408;2022-09-09T01:52:36;19.63;;;14.17;;
6999;SDS011;3540;53.242;10.408;2022-09-09T01:55:02;26.57;;;15.13;;
6999;SDS011;3540;53.242;10.408;2022-09-09T01:57:31;25.43;;;15.10;;
6999;SDS011;3540;53.242;10.408;2022-09-09T02:05:36;21.37;;;14.53;;
6999;SDS011;3540;53.242;10.408;2022-09-09T02:08:08;19.93;;;13.63;;
6999;SDS011;3540;53.242;10.408;2022-09-09T02:13:05;27.80;;;15.97;;
6999;SDS011;3540;53.242;10.408;2022-09-09T02:18:08;24.80;;;14.70;;
6999;SDS011;3540;53.242;10.408;2022-09-09T02:20:37;25.40;;;16.20;;
6999;SDS011;3540;53.242;10.408;2022-09-09T02:23:03;19.20;;;14.53;;
6999;SDS011;3540;53.242;10.408;2022-09-09T02:25:32;27.30;;;15.37;;
6999;SDS011;3540;53.242;10.408;2022-09-09T02:28:00;27.23;;;16.50;;
6999;SDS011;3540;53.242;10.408;2022-09-09T02:30:28;20.60;;;14.97;;
6999;SDS011;3540;53.242;10.408;2022-09-09T02:32:57;22.60;;;15.40;;
6999;SDS011;3540;53.242;10.408;2022-09-09T02:35:26;28.80;;;16.93;;
6999;SDS011;3540;53.242;10.408;2022-09-09T02:37:55;24.83;;;15.43;;
6999;SDS011;3540;53.242;10.408;2022-09-09T02:40:24;24.47;;;15.77;;
6999;SDS011;3540;53.242;10.408;2022-09-09T02:42:50;24.17;;;15.53;;
6999;SDS011;3540;53.242;10.408;2022-09-09T02:45:16;21.70;;;15.03;;
6999;SDS011;3540;53.242;10.408;2022-09-09T02:47:59;20.90;;;14.33;;
6999;SDS011;3540;53.242;10.408;2022-09-09T02:53:20;22.93;;;14.43;;
6999;SDS011;3540;53.242;10.408;2022-09-09T02:56:05;46.20;;;19.07;;
6999;SDS011;3540;53.242;10.408;2022-09-09T02:58:46;35.63;;;17.63;;
6999;SDS011;3540;53.242;10.408;2022-09-09T03:01:14;27.80;;;16.17;;
6999;SDS011;3540;53.242;10.408;2022-09-09T03:03:39;20.33;;;14.23;;
6999;SDS011;3540;53.242;10.408;2022-09-09T03:06:06;22.17;;;15.03;;
6999;SDS011;3540;53.242;10.408;2022-09-09T03:08:32;22.87;;;15.00;;
6999;SDS011;3540;53.242;10.408;2022-09-09T03:10:58;27.57;;;15.80;;
6999;SDS011;3540;53.242;10.408;2022-09-09T03:13:26;25.80;;;14.93;;
6999;SDS011;3540;53.242;10.408;2022-09-09T03:15:52;20.10;;;13.33;;
6999;SDS011;3540;53.242;10.408;2022-09-09T03:18:17;23.07;;;14.90;;
6999;SDS011;3540;53.242;10.408;2022-09-09T03:20:43;21.63;;;14.27;;
6999;SDS011;3540;53.242;10.408;2022-09-09T03:23:11;20.77;;;14.80;;
6999;SDS011;3540;53.242;10.408;2022-09-09T03:25:38;19.47;;;13.60;;
6999;SDS011;3540;53.242;10.408;2022-09-09T03:28:04;26.70;;;15.27;;
6999;SDS011;3540;53.242;10.408;2022-09-09T03:30:30;22.47;;;14.57;;
6999;SDS011;3540;53.242;10.408;2022-09-09T03:32:56;22.07;;;14.20;;
6999;SDS011;3540;53.242;10.408;2022-09-09T03:35:22;24.03;;;14.70;;
6999;SDS011;3540;53.242;10.408;2022-09-09T03:37:47;21.63;;;13.83;;
6999;SDS011;3540;53.242;10.408;2022-09-09T03:40:13;18.30;;;13.33;;
6999;SDS011;3540;53.242;10.408;2022-09-09T03:42:39;22.80;;;14.33;;
6999;SDS011;3540;53.242;10.408;2022-09-09T03:45:06;25.30;;;14.90;;
6999;SDS011;3540;53.242;10.408;2022-09-09T03:47:34;23.83;;;14.10;;
6999;SDS011;3540;53.242;10.408;2022-09-09T03:50:00;29.77;;;15.93;;
6999;SDS011;3540;53.242;10.408;2022-09-09T03:52:26;22.00;;;13.43;;
6999;SDS011;3540;53.242;10.408;2022-09-09T03:54:52;22.67;;;13.97;;
6999;SDS011;3540;53.242;10.408;2022-09-09T03:57:19;23.27;;;14.33;;
6999;SDS011;3540;53.242;10.408;2022-09-09T03:59:45;24.50;;;14.60;;
6999;SDS011;3540;53.242;10.408;2022-09-09T04:02:10;24.77;;;13.80;;
6999;SDS011;3540;53.242;10.408;2022-09-09T04:04:36;28.37;;;14.60;;
6999;SDS011;3540;53.242;10.408;2022-09-09T04:07:02;24.37;;;14.07;;
6999;SDS011;3540;53.242;10.408;2022-09-09T04:09:27;21.47;;;13.33;;
6999;SDS011;3540;53.242;10.408;2022-09-09T04:11:53;22.87;;;13.83;;
6999;SDS011;3540;53.242;10.408;2022-09-09T04:14:20;21.90;;;13.70;;
6999;SDS011;3540;53.242;10.408;2022-09-09T04:16:46;24.47;;;13.57;;
6999;SDS011;3540;53.242;10.408;2022-09-09T04:19:12;29.10;;;14.57;;
6999;SDS011;3540;53.242;10.408;2022-09-09T04:21:39;25.97;;;14.50;;
6999;SDS011;3540;53.242;10.408;2022-09-09T04:24:06;24.93;;;14.30;;
6999;SDS011;3540;53.242;10.408;2022-09-09T04:26:32;24.50;;;14.57;;
6999;SDS011;3540;53.242;10.408;2022-09-09T04:28:58;21.20;;;14.13;;
6999;SDS011;3540;53.242;10.408;2022-09-09T04:31:24;21.73;;;13.03;;
6999;SDS011;3540;53.242;10.408;2022-09-09T04:33:50;16.87;;;11.20;;
6999;SDS011;3540;53.242;10.408;2022-09-09T04:36:17;23.57;;;12.77;;
6999;SDS011;3540;53.242;10.408;2022-09-09T04:38:44;19.07;;;11.43;;
6999;SDS011;3540;53.242;10.408;2022-09-09T04:41:10;20.77;;;12.90;;
6999;SDS011;3540;53.242;10.408;2022-09-09T04:43:37;21.33;;;12.37;;
6999;SDS011;3540;53.242;10.408;2022-09-09T04:46:04;20.93;;;12.83;;
6999;SDS011;3540;53.242;10.408;2022-09-09T04:48:30;21.03;;;12.70;;
6999;SDS011;3540;53.242;10.408;2022-09-09T04:51:00;14.57;;;11.07;;
6999;SDS011;3540;53.242;10.408;2022-09-09T04:53:27;16.20;;;10.87;;
6999;SDS011;3540;53.242;10.408;2022-09-09T04:56:00;22.53;;;12.47;;
6999;SDS011;3540;53.242;10.408;2022-09-09T04:58:35;16.73;;;11.60;;
6999;SDS011;3540;53.242;10.408;2022-09-09T05:01:08;21.40;;;11.47;;
6999;SDS011;3540;53.242;10.408;2022-09-09T05:03:35;20.07;;;11.87;;
6999;SDS011;3540;53.242;10.408;2022-09-09T05:06:03;14.47;;;9.90;;
6999;SDS011;3540;53.242;10.408;2022-09-09T05:08:33;18.80;;;11.50;;
6999;SDS011;3540;53.242;10.408;2022-09-09T05:10:59;17.53;;;11.50;;
6999;SDS011;3540;53.242;10.408;2022-09-09T05:13:26;15.40;;;10.13;;
6999;SDS011;3540;53.242;10.408;2022-09-09T05:15:52;14.97;;;9.87;;
6999;SDS011;3540;53.242;10.408;2022-09-09T05:18:18;14.43;;;10.23;;
6999;SDS011;3540;53.242;10.408;2022-09-09T05:20:44;14.00;;;8.90;;
6999;SDS011;3540;53.242;10.408;2022-09-09T05:23:10;14.23;;;9.60;;
6999;SDS011;3540;53.242;10.408;2022-09-09T05:25:39;12.27;;;9.03;;
6999;SDS011;3540;53.242;10.408;2022-09-09T05:28:06;16.03;;;9.40;;
6999;SDS011;3540;53.242;10.408;2022-09-09T05:30:32;12.73;;;8.40;;
6999;SDS011;3540;53.242;10.408;2022-09-09T05:32:59;11.77;;;8.03;;
6999;SDS011;3540;53.242;10.408;2022-09-09T05:35:25;11.30;;;7.73;;
6999;SDS011;3540;53.242;10.408;2022-09-09T05:37:50;11.83;;;7.90;;
6999;SDS011;3540;53.242;10.408;2022-09-09T05:40:16;12.60;;;7.63;;
6999;SDS011;3540;53.242;10.408;2022-09-09T05:42:42;10.97;;;7.43;;
6999;SDS011;3540;53.242;10.408;2022-09-09T05:45:07;7.70;;;6.40;;
6999;SDS011;3540;53.242;10.408;2022-09-09T05:47:34;17.03;;;7.90;;
6999;SDS011;3540;53.242;10.408;2022-09-09T05:50:02;9.63;;;6.20;;
6999;SDS011;3540;53.242;10.408;2022-09-09T05:52:28;9.67;;;6.23;;
6999;SDS011;3540;53.242;10.408;2022-09-09T05:54:54;7.97;;;5.87;;
6999;SDS011;3540;53.242;10.408;2022-09-09T05:57:21;9.90;;;5.90;;
6999;SDS011;3540;53.242;10.408;2022-09-09T05:59:47;7.13;;;6.00;;
6999;SDS011;3540;53.242;10.408;2022-09-09T06:02:14;11.77;;;6.40;;
6999;SDS011;3540;53.242;10.408;2022-09-09T06:04:40;8.90;;;5.73;;
6999;SDS011;3540;53.242;10.408;2022-09-09T06:07:06;9.67;;;6.03;;
6999;SDS011;3540;53.242;10.408;2022-09-09T06:09:31;8.43;;;5.67;;
6999;SDS011;3540;53.242;10.408;2022-09-09T06:11:57;9.00;;;5.13;;
6999;SDS011;3540;53.242;10.408;2022-09-09T06:14:23;7.20;;;5.23;;
6999;SDS011;3540;53.242;10.408;2022-09-09T06:16:50;9.93;;;7.20;;
6999;SDS011;3540;53.242;10.408;2022-09-09T06:19:16;9.20;;;5.67;;
6999;SDS011;3540;53.242;10.408;2022-09-09T06:21:42;6.47;;;4.87;;
6999;SDS011;3540;53.242;10.408;2022-09-09T06:24:09;5.97;;;4.77;;
6999;SDS011;3540;53.242;10.408;2022-09-09T06:26:38;9.93;;;5.17;;
6999;SDS011;3540;53.242;10.408;2022-09-09T06:29:07;7.60;;;5.20;;
6999;SDS011;3540;53.242;10.408;2022-09-09T06:31:34;7.63;;;5.13;;
6999;SDS011;3540;53.242;10.408;2022-09-09T06:34:02;10.60;;;4.80;;
6999;SDS011;3540;53.242;10.408;2022-09-09T06:36:30;9.97;;;4.77;;
6999;SDS011;3540;53.242;10.408;2022-09-09T06:38:57;12.13;;;5.50;;
6999;SDS011;3540;53.242;10.408;2022-09-09T06:41:25;7.53;;;4.50;;
6999;SDS011;3540;53.242;10.408;2022-09-09T06:43:53;5.83;;;4.40;;
6999;SDS011;3540;53.242;10.408;2022-09-09T06:46:24;6.37;;;4.17;;
6999;SDS011;3540;53.242;10.408;2022-09-09T06:48:52;6.03;;;4.37;;
6999;SDS011;3540;53.242;10.408;2022-09-09T06:51:24;6.37;;;4.40;;
6999;SDS011;3540;53.242;10.408;2022-09-09T06:53:52;5.57;;;3.87;;
6999;SDS011;3540;53.242;10.408;2022-09-09T06:56:23;4.77;;;3.63;;
6999;SDS011;3540;53.242;10.408;2022-09-09T06:58:53;5.50;;;4.50;;
6999;SDS011;3540;53.242;10.408;2022-09-09T07:01:22;8.07;;;4.00;;
6999;SDS011;3540;53.242;10.408;2022-09-09T07:03:49;5.80;;;4.00;;
6999;SDS011;3540;53.242;10.408;2022-09-09T07:06:21;7.27;;;3.77;;
6999;SDS011;3540;53.242;10.408;2022-09-09T07:11:18;9.40;;;4.27;;
6999;SDS011;3540;53.242;10.408;2022-09-09T07:13:45;8.43;;;4.00;;
6999;SDS011;3540;53.242;10.408;2022-09-09T07:16:12;5.70;;;3.87;;
6999;SDS011;3540;53.242;10.408;2022-09-09T07:18:39;5.70;;;3.63;;
6999;SDS011;3540;53.242;10.408;2022-09-09T07:21:07;5.20;;;3.27;;
6999;SDS011;3540;53.242;10.408;2022-09-09T07:23:34;6.00;;;3.30;;
6999;SDS011;3540;53.242;10.408;2022-09-09T07:26:00;6.57;;;3.17;;
6999;SDS011;3540;53.242;10.408;2022-09-09T07:28:26;7.27;;;2.83;;
6999;SDS011;3540;53.242;10.408;2022-09-09T07:31:03;5.20;;;3.00;;
6999;SDS011;3540;53.242;10.408;2022-09-09T07:33:30;5.47;;;2.80;;
6999;SDS011;3540;53.242;10.408;2022-09-09T07:36:05;5.93;;;2.70;;
6999;SDS011;3540;53.242;10.408;2022-09-09T07:38:45;8.40;;;2.90;;
6999;SDS011;3540;53.242;10.408;2022-09-09T07:41:18;5.70;;;2.67;;
6999;SDS011;3540;53.242;10.408;2022-09-09T07:43:46;2.57;;;2.20;;
6999;SDS011;3540;53.242;10.408;2022-09-09T07:46:14;6.87;;;2.50;;
6999;SDS011;3540;53.242;10.408;2022-09-09T07:48:48;5.83;;;2.50;;
6999;SDS011;3540;53.242;10.408;2022-09-09T07:51:20;5.93;;;2.10;;
6999;SDS011;3540;53.242;10.408;2022-09-09T07:54:07;3.43;;;2.30;;
6999;SDS011;3540;53.242;10.408;2022-09-09T07:56:34;5.23;;;2.80;;
6999;SDS011;3540;53.242;10.408;2022-09-09T07:59:02;7.00;;;2.40;;
6999;SDS011;3540;53.242;10.408;2022-09-09T08:01:32;3.10;;;2.00;;
6999;SDS011;3540;53.242;10.408;2022-09-09T08:04:01;6.33;;;2.50;;
6999;SDS011;3540;53.242;10.408;2022-09-09T08:06:29;3.17;;;2.00;;
6999;SDS011;3540;53.242;10.408;2022-09-09T08:09:00;2.50;;;2.00;;
6999;SDS011;3540;53.242;10.408;2022-09-09T08:11:26;3.47;;;2.20;;
6999;SDS011;3540;53.242;10.408;2022-09-09T08:13:54;2.67;;;2.10;;
6999;SDS011;3540;53.242;10.408;2022-09-09T08:16:21;5.40;;;2.23;;
6999;SDS011;3540;53.242;10.408;2022-09-09T08:18:51;5.20;;;2.27;;
6999;SDS011;3540;53.242;10.408;2022-09-09T08:21:21;3.37;;;2.40;;
6999;SDS011;3540;53.242;10.408;2022-09-09T08:23:50;9.97;;;2.17;;
6999;SDS011;3540;53.242;10.408;2022-09-09T08:26:39;2.90;;;2.00;;
6999;SDS011;3540;53.242;10.408;2022-09-09T08:29:07;4.93;;;2.27;;
6999;SDS011;3540;53.242;10.408;2022-09-09T08:31:38;4.10;;;2.20;;
6999;SDS011;3540;53.242;10.408;2022-09-09T08:34:06;6.43;;;4.43;;
6999;SDS011;3540;53.242;10.408;2022-09-09T08:36:34;6.77;;;2.33;;
6999;SDS011;3540;53.242;10.408;2022-09-09T08:39:02;6.13;;;2.17;;
6999;SDS011;3540;53.242;10.408;2022-09-09T08:52:13;5.83;;;2.37;;
6999;SDS011;3540;53.242;10.408;2022-09-09T08:54:44;3.70;;;2.13;;
6999;SDS011;3540;53.242;10.408;2022-09-09T08:57:14;6.07;;;2.30;;
6999;SDS011;3540;53.242;10.408;2022-09-09T08:59:46;6.70;;;2.00;;
6999;SDS011;3540;53.242;10.408;2022-09-09T09:02:33;12.37;;;2.60;;
6999;SDS011;3540;53.242;10.408;2022-09-09T09:08:16;5.43;;;2.30;;
6999;SDS011;3540;53.242;10.408;2022-09-09T09:10:53;6.43;;;3.07;;
6999;SDS011;3540;53.242;10.408;2022-09-09T09:16:14;3.77;;;2.23;;
6999;SDS011;3540;53.242;10.408;2022-09-09T09:18:51;4.07;;;1.93;;
6999;SDS011;3540;53.242;10.408;2022-09-09T09:21:28;6.13;;;2.53;;
6999;SDS011;3540;53.242;10.408;2022-09-09T09:24:05;4.17;;;2.17;;
6999;SDS011;3540;53.242;10.408;2022-09-09T09:26:57;5.00;;;2.50;;
6999;SDS011;3540;53.242;10.408;2022-09-09T09:29:32;10.97;;;2.10;;
6999;SDS011;3540;53.242;10.408;2022-09-09T09:32:00;8.57;;;2.20;;
6999;SDS011;3540;53.242;10.408;2022-09-09T09:34:28;6.70;;;2.10;;
6999;SDS011;3540;53.242;10.408;2022-09-09T09:36:57;6.37;;;1.93;;
6999;SDS011;3540;53.242;10.408;2022-09-09T09:39:28;4.77;;;2.10;;
6999;SDS011;3540;53.242;10.408;2022-09-09T09:42:14;4.03;;;2.00;;
6999;SDS011;3540;53.242;10.408;2022-09-09T09:44:42;3.03;;;1.80;;
6999;SDS011;3540;53.242;10.408;2022-09-09T09:47:29;5.50;;;1.90;;
6999;SDS011;3540;53.242;10.408;2022-09-09T09:49:57;5.23;;;1.80;;
6999;SDS011;3540;53.242;10.408;2022-09-09T09:52:27;6.20;;;2.13;;
6999;SDS011;3540;53.242;10.408;2022-09-09T09:54:55;5.33;;;2.27;;
6999;SDS011;3540;53.242;10.408;2022-09-09T09:57:26;3.53;;;1.87;;
6999;SDS011;3540;53.242;10.408;2022-09-09T10:00:03;7.43;;;2.07;;
6999;SDS011;3540;53.242;10.408;2022-09-09T10:02:43;3.77;;;1.60;;
6999;SDS011;3540;53.242;10.408;2022-09-09T10:05:14;3.80;;;1.67;;
6999;SDS011;3540;53.242;10.408;2022-09-09T10:07:46;3.33;;;1.63;;
6999;SDS011;3540;53.242;10.408;2022-09-09T10:10:19;5.17;;;2.07;;
6999;SDS011;3540;53.242;10.408;2022-09-09T10:12:59;3.67;;;1.90;;
6999;SDS011;3540;53.242;10.408;2022-09-09T10:21:10;5.97;;;1.93;;
6999;SDS011;3540;53.242;10.408;2022-09-09T10:24:15;5.90;;;3.90;;
6999;SDS011;3540;53.242;10.408;2022-09-09T10:27:05;4.10;;;2.03;;
6999;SDS011;3540;53.242;10.408;2022-09-09T10:35:43;3.63;;;1.80;;
6999;SDS011;3540;53.242;10.408;2022-09-09T10:41:18;4.28;;;1.80;;
6999;SDS011;3540;53.242;10.408;2022-09-09T10:54:56;3.70;;;1.67;;
6999;SDS011;3540;53.242;10.408;2022-09-09T10:57:40;5.40;;;1.42;;
6999;SDS011;3540;53.242;10.408;2022-09-09T11:00:24;3.17;;;1.48;;
6999;SDS011;3540;53.242;10.408;2022-09-09T11:03:01;2.70;;;1.70;;
6999;SDS011;3540;53.242;10.408;2022-09-09T11:08:28;2.65;;;1.30;;
6999;SDS011;3540;53.242;10.408;2022-09-09T11:11:06;4.22;;;1.65;;
6999;SDS011;3540;53.242;10.408;2022-09-09T11:19:36;7.70;;;1.90;;
6999;SDS011;3540;53.242;10.408;2022-09-09T11:24:53;4.88;;;1.80;;
6999;SDS011;3540;53.242;10.408;2022-09-09T11:27:39;2.08;;;1.50;;
6999;SDS011;3540;53.242;10.408;2022-09-09T11:30:17;2.63;;;1.60;;
6999;SDS011;3540;53.242;10.408;2022-09-09T11:40:46;3.43;;;1.50;;
6999;SDS011;3540;53.242;10.408;2022-09-09T11:43:27;2.87;;;1.40;;
6999;SDS011;3540;53.242;10.408;2022-09-09T11:45:57;2.13;;;1.47;;
6999;SDS011;3540;53.242;10.408;2022-09-09T11:53:30;12.50;;;3.33;;
6999;SDS011;3540;53.242;10.408;2022-09-09T11:56:00;7.23;;;2.30;;
6999;SDS011;3540;53.242;10.408;2022-09-09T11:58:28;4.13;;;2.03;;
6999;SDS011;3540;53.242;10.408;2022-09-09T12:00:58;3.30;;;2.23;;
6999;SDS011;3540;53.242;10.408;2022-09-09T12:08:42;5.87;;;2.30;;
6999;SDS011;3540;53.242;10.408;2022-09-09T12:11:11;3.63;;;2.20;;
6999;SDS011;3540;53.242;10.408;2022-09-09T12:13:52;5.80;;;2.53;;
6999;SDS011;3540;53.242;10.408;2022-09-09T12:29:37;5.60;;;2.20;;
6999;SDS011;3540;53.242;10.408;2022-09-09T12:32:22;6.83;;;2.37;;
6999;SDS011;3540;53.242;10.408;2022-09-09T12:39:55;4.73;;;2.23;;
6999;SDS011;3540;53.242;10.408;2022-09-09T12:42:31;4.70;;;2.10;;
6999;SDS011;3540;53.242;10.408;2022-09-09T12:45:02;3.90;;;2.00;;
6999;SDS011;3540;53.242;10.408;2022-09-09T12:47:43;5.27;;;2.00;;
6999;SDS011;3540;53.242;10.408;2022-09-09T12:52:55;4.97;;;2.20;;
6999;SDS011;3540;53.242;10.408;2022-09-09T12:55:24;4.63;;;2.30;;
6999;SDS011;3540;53.242;10.408;2022-09-09T12:57:55;4.00;;;2.27;;
6999;SDS011;3540;53.242;10.408;2022-09-09T13:00:22;2.27;;;1.93;;
6999;SDS011;3540;53.242;10.408;2022-09-09T13:02:53;8.10;;;2.25;;
6999;SDS011;3540;53.242;10.408;2022-09-09T13:05:22;3.92;;;1.80;;
6999;SDS011;3540;53.242;10.408;2022-09-09T13:07:49;5.32;;;1.90;;
6999;SDS011;3540;53.242;10.408;2022-09-09T13:10:20;5.53;;;2.30;;
6999;SDS011;3540;53.242;10.408;2022-09-09T13:12:51;3.58;;;1.90;;
6999;SDS011;3540;53.242;10.408;2022-09-09T13:15:21;5.13;;;1.98;;
6999;SDS011;3540;53.242;10.408;2022-09-09T13:17:50;3.25;;;1.90;;
6999;SDS011;3540;53.242;10.408;2022-09-09T13:20:21;3.88;;;2.15;;
6999;SDS011;3540;53.242;10.408;2022-09-09T13:22:48;6.95;;;2.05;;
6999;SDS011;3540;53.242;10.408;2022-09-09T13:25:25;2.72;;;2.00;;
6999;SDS011;3540;53.242;10.408;2022-09-09T13:27:54;3.72;;;2.13;;
6999;SDS011;3540;53.242;10.408;2022-09-09T13:38:19;4.10;;;2.10;;
6999;SDS011;3540;53.242;10.408;2022-09-09T13:40:56;3.43;;;2.00;;
6999;SDS011;3540;53.242;10.408;2022-09-09T13:43:36;3.97;;;2.40;;
6999;SDS011;3540;53.242;10.408;2022-09-09T13:54:00;5.40;;;2.20;;
6999;SDS011;3540;53.242;10.408;2022-09-09T13:56:26;5.50;;;2.43;;
6999;SDS011;3540;53.242;10.408;2022-09-09T13:58:52;4.80;;;2.80;;
6999;SDS011;3540;53.242;10.408;2022-09-09T14:01:17;3.33;;;2.00;;
6999;SDS011;3540;53.242;10.408;2022-09-09T14:03:43;5.30;;;1.90;;
6999;SDS011;3540;53.242;10.408;2022-09-09T14:06:09;3.83;;;1.37;;
6999;SDS011;3540;53.242;10.408;2022-09-09T14:08:36;3.87;;;1.60;;
6999;SDS011;3540;53.242;10.408;2022-09-09T14:11:04;4.20;;;1.50;;
6999;SDS011;3540;53.242;10.408;2022-09-09T14:13:30;3.27;;;1.50;;
6999;SDS011;3540;53.242;10.408;2022-09-09T14:15:56;2.90;;;1.50;;
6999;SDS011;3540;53.242;10.408;2022-09-09T14:18:22;2.27;;;1.57;;
6999;SDS011;3540;53.242;10.408;2022-09-09T14:20:48;3.80;;;1.77;;
6999;SDS011;3540;53.242;10.408;2022-09-09T14:23:15;3.47;;;1.70;;
6999;SDS011;3540;53.242;10.408;2022-09-09T14:25:42;3.63;;;1.37;;
6999;SDS011;3540;53.242;10.408;2022-09-09T14:28:09;3.87;;;1.60;;
6999;SDS011;3540;53.242;10.408;2022-09-09T14:30:37;4.87;;;1.50;;
6999;SDS011;3540;53.242;10.408;2022-09-09T14:33:04;3.03;;;1.40;;
6999;SDS011;3540;53.242;10.408;2022-09-09T14:35:30;4.60;;;1.30;;
6999;SDS011;3540;53.242;10.408;2022-09-09T14:37:55;5.07;;;1.30;;
6999;SDS011;3540;53.242;10.408;2022-09-09T14:40:21;2.13;;;1.30;;
6999;SDS011;3540;53.242;10.408;2022-09-09T14:42:47;3.70;;;1.27;;
6999;SDS011;3540;53.242;10.408;2022-09-09T14:45:12;2.07;;;1.20;;
6999;SDS011;3540;53.242;10.408;2022-09-09T14:47:38;3.93;;;1.43;;
6999;SDS011;3540;53.242;10.408;2022-09-09T14:50:04;3.53;;;1.40;;
6999;SDS011;3540;53.242;10.408;2022-09-09T14:52:31;4.73;;;1.40;;
6999;SDS011;3540;53.242;10.408;2022-09-09T14:54:56;3.47;;;1.50;;
6999;SDS011;3540;53.242;10.408;2022-09-09T14:57:22;2.17;;;1.57;;
6999;SDS011;3540;53.242;10.408;2022-09-09T14:59:47;4.00;;;1.47;;
6999;SDS011;3540;53.242;10.408;2022-09-09T15:02:15;3.67;;;1.50;;
6999;SDS011;3540;53.242;10.408;2022-09-09T15:04:40;3.87;;;1.80;;
6999;SDS011;3540;53.242;10.408;2022-09-09T15:07:06;5.23;;;1.90;;
6999;SDS011;3540;53.242;10.408;2022-09-09T15:09:32;3.47;;;1.77;;
6999;SDS011;3540;53.242;10.408;2022-09-09T15:11:57;5.77;;;1.60;;
6999;SDS011;3540;53.242;10.408;2022-09-09T15:14:23;4.07;;;1.90;;
6999;SDS011;3540;53.242;10.408;2022-09-09T15:16:48;2.80;;;1.70;;
6999;SDS011;3540;53.242;10.408;2022-09-09T15:19:14;3.93;;;1.80;;
6999;SDS011;3540;53.242;10.408;2022-09-09T15:21:39;4.50;;;2.10;;
6999;SDS011;3540;53.242;10.408;2022-09-09T15:24:05;3.43;;;1.80;;
6999;SDS011;3540;53.242;10.408;2022-09-09T15:26:33;3.30;;;1.90;;
6999;SDS011;3540;53.242;10.408;2022-09-09T15:28:59;4.80;;;1.80;;
6999;SDS011;3540;53.242;10.408;2022-09-09T15:31:25;2.77;;;1.60;;
6999;SDS011;3540;53.242;10.408;2022-09-09T15:33:54;3.37;;;1.80;;
6999;SDS011;3540;53.242;10.408;2022-09-09T15:38:54;4.53;;;1.87;;
6999;SDS011;3540;53.242;10.408;2022-09-09T15:41:20;2.63;;;1.77;;
6999;SDS011;3540;53.242;10.408;2022-09-09T15:43:53;2.90;;;2.00;;
6999;SDS011;3540;53.242;10.408;2022-09-09T15:46:27;3.40;;;2.00;;
6999;SDS011;3540;53.242;10.408;2022-09-09T15:48:58;4.00;;;2.10;;
6999;SDS011;3540;53.242;10.408;2022-09-09T15:51:27;2.87;;;2.00;;
6999;SDS011;3540;53.242;10.408;2022-09-09T15:53:56;5.13;;;2.30;;
6999;SDS011;3540;53.242;10.408;2022-09-09T15:56:23;4.43;;;2.00;;
6999;SDS011;3540;53.242;10.408;2022-09-09T15:58:49;5.77;;;2.27;;
6999;SDS011;3540;53.242;10.408;2022-09-09T16:01:16;3.83;;;2.13;;
6999;SDS011;3540;53.242;10.408;2022-09-09T16:03:42;3.63;;;2.07;;
6999;SDS011;3540;53.242;10.408;2022-09-09T16:06:10;5.57;;;2.30;;
6999;SDS011;3540;53.242;10.408;2022-09-09T16:08:38;4.57;;;2.10;;
6999;SDS011;3540;53.242;10.408;2022-09-09T16:13:38;6.70;;;2.03;;
6999;SDS011;3540;53.242;10.408;2022-09-09T16:16:04;4.20;;;1.93;;
6999;SDS011;3540;53.242;10.408;2022-09-09T16:18:41;3.00;;;1.87;;
6999;SDS011;3540;53.242;10.408;2022-09-09T16:21:13;4.00;;;2.10;;
6999;SDS011;3540;53.242;10.408;2022-09-09T16:23:42;4.17;;;2.03;;
6999;SDS011;3540;53.242;10.408;2022-09-09T16:26:10;3.87;;;1.90;;
6999;SDS011;3540;53.242;10.408;2022-09-09T16:28:37;3.13;;;1.80;;
6999;SDS011;3540;53.242;10.408;2022-09-09T16:31:05;8.50;;;4.57;;
6999;SDS011;3540;53.242;10.408;2022-09-09T16:33:31;5.43;;;2.70;;
6999;SDS011;3540;53.242;10.408;2022-09-09T16:35:57;2.70;;;2.10;;
6999;SDS011;3540;53.242;10.408;2022-09-09T16:38:23;3.70;;;1.93;;
6999;SDS011;3540;53.242;10.408;2022-09-09T16:40:49;4.93;;;1.90;;
6999;SDS011;3540;53.242;10.408;2022-09-09T16:43:15;3.93;;;1.83;;
6999;SDS011;3540;53.242;10.408;2022-09-09T16:45:41;3.23;;;1.83;;
6999;SDS011;3540;53.242;10.408;2022-09-09T16:48:10;3.70;;;2.20;;
6999;SDS011;3540;53.242;10.408;2022-09-09T16:50:37;4.53;;;1.77;;
6999;SDS011;3540;53.242;10.408;2022-09-09T16:53:04;3.73;;;2.10;;
6999;SDS011;3540;53.242;10.408;2022-09-09T16:55:31;3.00;;;1.73;;
6999;SDS011;3540;53.242;10.408;2022-09-09T16:57:57;3.60;;;1.80;;
6999;SDS011;3540;53.242;10.408;2022-09-09T17:00:23;2.77;;;1.80;;
6999;SDS011;3540;53.242;10.408;2022-09-09T17:02:48;4.20;;;2.10;;
6999;SDS011;3540;53.242;10.408;2022-09-09T17:05:14;4.77;;;2.87;;
6999;SDS011;3540;53.242;10.408;2022-09-09T17:07:39;3.83;;;2.17;;
6999;SDS011;3540;53.242;10.408;2022-09-09T17:10:06;3.50;;;2.07;;
6999;SDS011;3540;53.242;10.408;2022-09-09T17:12:32;2.83;;;1.90;;
6999;SDS011;3540;53.242;10.408;2022-09-09T17:15:00;3.20;;;2.00;;
6999;SDS011;3540;53.242;10.408;2022-09-09T17:17:28;3.47;;;2.20;;
6999;SDS011;3540;53.242;10.408;2022-09-09T17:19:53;5.30;;;3.17;;
6999;SDS011;3540;53.242;10.408;2022-09-09T17:22:19;4.17;;;3.17;;
6999;SDS011;3540;53.242;10.408;2022-09-09T17:24:46;4.47;;;2.90;;
6999;SDS011;3540;53.242;10.408;2022-09-09T17:27:12;7.17;;;2.57;;
6999;SDS011;3540;53.242;10.408;2022-09-09T17:29:38;2.67;;;2.10;;
6999;SDS011;3540;53.242;10.408;2022-09-09T17:32:05;3.63;;;1.90;;
6999;SDS011;3540;53.242;10.408;2022-09-09T17:34:32;3.47;;;2.17;;
6999;SDS011;3540;53.242;10.408;2022-09-09T17:36:58;3.77;;;2.33;;
6999;SDS011;3540;53.242;10.408;2022-09-09T17:39:24;3.90;;;2.30;;
6999;SDS011;3540;53.242;10.408;2022-09-09T17:41:49;3.17;;;2.30;;
6999;SDS011;3540;53.242;10.408;2022-09-09T17:44:15;4.87;;;2.27;;